sensor_id;sensor_type;location;lat;lon;timestamp;pressure;altitude;pressure_sealevel;temperature;humidity
71964;BME280;59834;52.124;5.422;2023-07-09T00:01:15;101725.00;;;22.36;80.00
71964;BME280;59834;52.124;5.422;2023-07-09T00:03:45;101731.94;;;22.29;80.72
71964;BME280;59834;52.124;5.422;2023-07-09T00:06:12;101732.41;;;22.24;79.90
71964;BME280;59834;52.124;5.422;2023-07-09T00:08:43;101729.88;;;22.23;79.88
71964;BME280;59834;52.124;5.422;2023-07-09T00:11:12;101732.94;;;22.28;80.48
71964;BME280;59834;52.124;5.422;2023-07-09T00:13:38;101733.09;;;22.26;79.88
71964;BME280;59834;52.124;5.422;2023-07-09T00:16:14;101730.41;;;22.26;78.98
71964;BME280;59834;52.124;5.422;2023-07-09T00:18:41;101737.28;;;22.29;78.96
71964;BME280;59834;52.124;5.422;2023-07-09T00:21:08;101743.63;;;22.28;78.66
71964;BME280;59834;52.124;5.422;2023-07-09T00:23:34;101752.63;;;22.27;78.72
71964;BME280;59834;52.124;5.422;2023-07-09T00:26:01;101749.97;;;22.27;79.34
71964;BME280;59834;52.124;5.422;2023-07-09T00:28:30;101749.97;;;22.27;78.31
71964;BME280;59834;52.124;5.422;2023-07-09T00:30:56;101749.25;;;22.25;78.66
71964;BME280;59834;52.124;5.422;2023-07-09T00:33:23;101751.22;;;22.23;78.84
71964;BME280;59834;52.124;5.422;2023-07-09T00:35:58;101754.88;;;22.22;78.66
71964;BME280;59834;52.124;5.422;2023-07-09T00:38:25;101743.38;;;22.21;77.76
71964;BME280;59834;52.124;5.422;2023-07-09T00:41:06;101758.25;;;22.24;77.30
71964;BME280;59834;52.124;5.422;2023-07-09T00:43:36;101753.22;;;22.21;78.24
71964;BME280;59834;52.124;5.422;2023-07-09T00:49:05;101758.88;;;22.08;78.44
71964;BME280;59834;52.124;5.422;2023-07-09T00:51:36;101762.84;;;22.04;78.87
71964;BME280;59834;52.124;5.422;2023-07-09T00:54:31;101766.94;;;21.98;78.60
71964;BME280;59834;52.124;5.422;2023-07-09T00:57:03;101770.59;;;21.97;78.81
71964;BME280;59834;52.124;5.422;2023-07-09T00:59:32;101769.59;;;21.98;79.87
71964;BME280;59834;52.124;5.422;2023-07-09T01:02:00;101769.75;;;21.97;79.82
71964;BME280;59834;52.124;5.422;2023-07-09T01:04:27;101775.22;;;21.95;79.83
71964;BME280;59834;52.124;5.422;2023-07-09T01:06:55;101774.22;;;21.96;80.51
71964;BME280;59834;52.124;5.422;2023-07-09T01:09:23;101772.72;;;21.94;80.13
71964;BME280;59834;52.124;5.422;2023-07-09T01:11:51;101765.84;;;21.91;79.80
71964;BME280;59834;52.124;5.422;2023-07-09T01:14:19;101769.66;;;21.88;79.92
71964;BME280;59834;52.124;5.422;2023-07-09T01:16:54;101765.75;;;21.83;78.81
71964;BME280;59834;52.124;5.422;2023-07-09T01:19:28;101757.13;;;21.71;79.43
71964;BME280;59834;52.124;5.422;2023-07-09T01:22:00;101760.66;;;21.62;79.36
71964;BME280;59834;52.124;5.422;2023-07-09T01:24:58;101757.88;;;21.63;79.63
71964;BME280;59834;52.124;5.422;2023-07-09T01:27:35;101760.78;;;21.70;80.37
71964;BME280;59834;52.124;5.422;2023-07-09T01:30:08;101764.41;;;21.69;80.87
71964;BME280;59834;52.124;5.422;2023-07-09T01:32:37;101763.34;;;21.62;81.16
71964;BME280;59834;52.124;5.422;2023-07-09T01:35:05;101763.50;;;21.60;81.02
71964;BME280;59834;52.124;5.422;2023-07-09T01:37:35;101765.88;;;21.63;80.43
71964;BME280;59834;52.124;5.422;2023-07-09T01:40:04;101760.25;;;21.67;80.77
71964;BME280;59834;52.124;5.422;2023-07-09T01:42:42;101765.56;;;21.67;80.19
71964;BME280;59834;52.124;5.422;2023-07-09T01:45:09;101759.53;;;21.64;80.39
71964;BME280;59834;52.124;5.422;2023-07-09T01:47:37;101766.16;;;21.60;81.16
71964;BME280;59834;52.124;5.422;2023-07-09T01:50:06;101768.13;;;21.58;81.68
71964;BME280;59834;52.124;5.422;2023-07-09T01:52:33;101769.13;;;21.57;81.94
71964;BME280;59834;52.124;5.422;2023-07-09T01:55:00;101775.44;;;21.56;82.26
71964;BME280;59834;52.124;5.422;2023-07-09T01:57:30;101777.41;;;21.54;81.86
71964;BME280;59834;52.124;5.422;2023-07-09T02:00:09;101780.06;;;21.54;82.30
71964;BME280;59834;52.124;5.422;2023-07-09T02:02:37;101772.66;;;21.48;82.23
71964;BME280;59834;52.124;5.422;2023-07-09T02:05:05;101779.09;;;21.46;82.26
71964;BME280;59834;52.124;5.422;2023-07-09T02:07:32;101775.47;;;21.47;81.38
71964;BME280;59834;52.124;5.422;2023-07-09T02:09:58;101773.50;;;21.39;81.36
71964;BME280;59834;52.124;5.422;2023-07-09T02:12:25;101776.06;;;21.21;82.40
71964;BME280;59834;52.124;5.422;2023-07-09T02:14:52;101769.09;;;21.10;82.76
71964;BME280;59834;52.124;5.422;2023-07-09T02:17:18;101779.31;;;21.05;83.03
71964;BME280;59834;52.124;5.422;2023-07-09T02:19:45;101777.22;;;20.99;82.87
71964;BME280;59834;52.124;5.422;2023-07-09T02:22:12;101779.75;;;21.01;83.16
71964;BME280;59834;52.124;5.422;2023-07-09T02:24:39;101777.94;;;21.01;82.70
71964;BME280;59834;52.124;5.422;2023-07-09T02:27:08;101784.38;;;20.99;82.96
71964;BME280;59834;52.124;5.422;2023-07-09T02:29:37;101779.19;;;20.97;82.74
71964;BME280;59834;52.124;5.422;2023-07-09T02:32:04;101774.00;;;20.95;82.81
71964;BME280;59834;52.124;5.422;2023-07-09T02:34:31;101774.16;;;20.94;82.38
71964;BME280;59834;52.124;5.422;2023-07-09T02:36:59;101771.34;;;20.95;82.06
71964;BME280;59834;52.124;5.422;2023-07-09T02:39:26;101774.56;;;20.99;82.03
71964;BME280;59834;52.124;5.422;2023-07-09T02:41:53;101770.78;;;21.02;82.10
71964;BME280;59834;52.124;5.422;2023-07-09T02:44:20;101768.00;;;21.03;82.17
71964;BME280;59834;52.124;5.422;2023-07-09T02:46:47;101772.59;;;21.01;82.89
71964;BME280;59834;52.124;5.422;2023-07-09T02:49:15;101774.72;;;20.98;82.50
71964;BME280;59834;52.124;5.422;2023-07-09T02:51:41;101774.44;;;20.91;82.21
71964;BME280;59834;52.124;5.422;2023-07-09T02:54:08;101766.63;;;20.89;82.75
71964;BME280;59834;52.124;5.422;2023-07-09T02:56:35;101772.63;;;20.91;82.60
71964;BME280;59834;52.124;5.422;2023-07-09T02:59:02;101771.78;;;20.91;83.10
71964;BME280;59834;52.124;5.422;2023-07-09T03:01:28;101778.38;;;20.87;83.44
71964;BME280;59834;52.124;5.422;2023-07-09T03:03:56;101769.84;;;20.83;84.02
71964;BME280;59834;52.124;5.422;2023-07-09T03:06:24;101773.34;;;20.84;84.44
71964;BME280;59834;52.124;5.422;2023-07-09T03:08:51;101773.47;;;20.82;84.31
71964;BME280;59834;52.124;5.422;2023-07-09T03:11:19;101774.59;;;20.80;84.03
71964;BME280;59834;52.124;5.422;2023-07-09T03:13:47;101778.50;;;20.76;83.06
71964;BME280;59834;52.124;5.422;2023-07-09T03:16:14;101779.78;;;20.71;83.34
71964;BME280;59834;52.124;5.422;2023-07-09T03:18:42;101780.31;;;20.65;83.75
71964;BME280;59834;52.124;5.422;2023-07-09T03:21:09;101784.97;;;20.63;83.48
71964;BME280;59834;52.124;5.422;2023-07-09T03:23:35;101780.31;;;20.65;84.19
71964;BME280;59834;52.124;5.422;2023-07-09T03:26:02;101776.28;;;20.61;83.80
71964;BME280;59834;52.124;5.422;2023-07-09T03:28:31;101780.34;;;20.56;84.49
71964;BME280;59834;52.124;5.422;2023-07-09T03:30:58;101786.63;;;20.55;84.33
71964;BME280;59834;52.124;5.422;2023-07-09T03:33:25;101787.19;;;20.58;84.45
71964;BME280;59834;52.124;5.422;2023-07-09T03:35:52;101793.22;;;20.60;85.05
71964;BME280;59834;52.124;5.422;2023-07-09T03:38:19;101786.78;;;20.63;84.96
71964;BME280;59834;52.124;5.422;2023-07-09T03:40:45;101781.19;;;20.66;84.21
71964;BME280;59834;52.124;5.422;2023-07-09T03:43:15;101776.56;;;20.68;84.30
71964;BME280;59834;52.124;5.422;2023-07-09T03:45:44;101786.78;;;20.73;83.69
71964;BME280;59834;52.124;5.422;2023-07-09T03:48:11;101783.41;;;20.70;83.65
71964;BME280;59834;52.124;5.422;2023-07-09T03:50:38;101787.63;;;20.73;83.12
71964;BME280;59834;52.124;5.422;2023-07-09T03:53:04;101783.16;;;20.74;83.30
71964;BME280;59834;52.124;5.422;2023-07-09T03:55:32;101784.81;;;20.75;83.06
71964;BME280;59834;52.124;5.422;2023-07-09T03:57:58;101782.59;;;20.80;83.10
71964;BME280;59834;52.124;5.422;2023-07-09T04:00:25;101790.97;;;20.85;83.44
71964;BME280;59834;52.124;5.422;2023-07-09T04:02:52;101790.56;;;20.89;83.07
71964;BME280;59834;52.124;5.422;2023-07-09T04:05:18;101785.38;;;20.88;82.85
71964;BME280;59834;52.124;5.422;2023-07-09T04:07:45;101790.69;;;20.88;83.02
71964;BME280;59834;52.124;5.422;2023-07-09T04:10:13;101794.91;;;20.90;82.97
71964;BME280;59834;52.124;5.422;2023-07-09T04:12:40;101791.78;;;20.95;82.73
71964;BME280;59834;52.124;5.422;2023-07-09T04:15:07;101797.81;;;20.97;82.37
71964;BME280;59834;52.124;5.422;2023-07-09T04:17:34;101796.28;;;21.04;82.43
71964;BME280;59834;52.124;5.422;2023-07-09T04:20:02;101787.28;;;21.15;81.96
71964;BME280;59834;52.124;5.422;2023-07-09T04:22:39;101784.97;;;21.49;80.71
71964;BME280;59834;52.124;5.422;2023-07-09T04:25:07;101792.09;;;21.86;78.86
71964;BME280;59834;52.124;5.422;2023-07-09T04:27:37;101789.31;;;21.87;78.80
71964;BME280;59834;52.124;5.422;2023-07-09T04:30:07;101790.72;;;21.82;78.71
71964;BME280;59834;52.124;5.422;2023-07-09T04:32:35;101788.75;;;21.84;78.85
71964;BME280;59834;52.124;5.422;2023-07-09T04:35:03;101786.78;;;21.86;78.30
71964;BME280;59834;52.124;5.422;2023-07-09T04:37:32;101784.34;;;21.93;78.39
71964;BME280;59834;52.124;5.422;2023-07-09T04:39:59;101792.84;;;22.06;77.55
71964;BME280;59834;52.124;5.422;2023-07-09T04:42:26;101784.00;;;22.05;78.14
71964;BME280;59834;52.124;5.422;2023-07-09T04:44:52;101790.94;;;21.98;78.78
71964;BME280;59834;52.124;5.422;2023-07-09T04:47:19;101785.06;;;21.95;79.18
71964;BME280;59834;52.124;5.422;2023-07-09T04:49:46;101793.53;;;22.08;79.62
71964;BME280;59834;52.124;5.422;2023-07-09T04:52:12;101792.69;;;22.35;77.52
71964;BME280;59834;52.124;5.422;2023-07-09T04:54:41;101791.50;;;22.47;76.80
71964;BME280;59834;52.124;5.422;2023-07-09T04:57:11;101790.03;;;22.53;76.38
71964;BME280;59834;52.124;5.422;2023-07-09T04:59:38;101786.44;;;22.62;76.80
71964;BME280;59834;52.124;5.422;2023-07-09T05:02:05;101782.09;;;22.79;75.82
71964;BME280;59834;52.124;5.422;2023-07-09T05:04:32;101776.22;;;22.93;75.02
71964;BME280;59834;52.124;5.422;2023-07-09T05:06:59;101777.56;;;23.15;74.47
71964;BME280;59834;52.124;5.422;2023-07-09T05:09:26;101775.47;;;23.01;74.74
71964;BME280;59834;52.124;5.422;2023-07-09T05:11:52;101765.66;;;23.36;73.20
71964;BME280;59834;52.124;5.422;2023-07-09T05:14:19;101767.09;;;23.56;72.08
71964;BME280;59834;52.124;5.422;2023-07-09T05:16:45;101771.84;;;24.13;69.12
71964;BME280;59834;52.124;5.422;2023-07-09T05:19:14;101774.94;;;24.42;68.08
71964;BME280;59834;52.124;5.422;2023-07-09T05:21:41;101774.91;;;25.00;66.36
71964;BME280;59834;52.124;5.422;2023-07-09T05:24:07;101783.13;;;25.23;64.98
71964;BME280;59834;52.124;5.422;2023-07-09T05:26:34;101770.13;;;25.59;63.30
71964;BME280;59834;52.124;5.422;2023-07-09T05:29:02;101776.44;;;26.05;62.71
71964;BME280;59834;52.124;5.422;2023-07-09T05:31:29;101766.44;;;26.53;60.70
71964;BME280;59834;52.124;5.422;2023-07-09T05:33:56;101772.28;;;26.57;61.02
71964;BME280;59834;52.124;5.422;2023-07-09T05:36:23;101762.47;;;26.64;60.83
71964;BME280;59834;52.124;5.422;2023-07-09T05:38:49;101763.72;;;27.29;58.92
71964;BME280;59834;52.124;5.422;2023-07-09T05:41:16;101758.59;;;27.93;56.54
71964;BME280;59834;52.124;5.422;2023-07-09T05:43:44;101764.28;;;27.84;56.51
71964;BME280;59834;52.124;5.422;2023-07-09T05:46:13;101772.31;;;27.69;57.63
71964;BME280;59834;52.124;5.422;2023-07-09T05:48:40;101768.88;;;27.90;56.94
71964;BME280;59834;52.124;5.422;2023-07-09T05:51:06;101768.78;;;27.68;57.42
71964;BME280;59834;52.124;5.422;2023-07-09T05:53:33;101777.81;;;27.46;57.18
71964;BME280;59834;52.124;5.422;2023-07-09T05:56:00;101781.41;;;27.53;57.15
71964;BME280;59834;52.124;5.422;2023-07-09T05:58:28;101778.72;;;27.68;56.69
71964;BME280;59834;52.124;5.422;2023-07-09T06:00:55;101776.13;;;27.74;57.06
71964;BME280;59834;52.124;5.422;2023-07-09T06:03:24;101783.28;;;28.18;55.82
71964;BME280;59834;52.124;5.422;2023-07-09T06:05:51;101785.59;;;28.22;56.14
71964;BME280;59834;52.124;5.422;2023-07-09T06:08:20;101787.63;;;27.83;56.69
71964;BME280;59834;52.124;5.422;2023-07-09T06:11:04;101784.31;;;27.52;58.35
71964;BME280;59834;52.124;5.422;2023-07-09T06:13:32;101784.84;;;27.17;59.83
71964;BME280;59834;52.124;5.422;2023-07-09T06:15:59;101792.59;;;27.12;60.17
71964;BME280;59834;52.124;5.422;2023-07-09T06:18:26;101793.47;;;27.27;60.96
71964;BME280;59834;52.124;5.422;2023-07-09T06:20:59;101790.34;;;27.54;60.68
71964;BME280;59834;52.124;5.422;2023-07-09T06:23:26;101794.13;;;27.74;59.72
71964;BME280;59834;52.124;5.422;2023-07-09T06:25:53;101787.81;;;27.82;58.92
71964;BME280;59834;52.124;5.422;2023-07-09T06:28:22;101802.25;;;28.10;58.54
71964;BME280;59834;52.124;5.422;2023-07-09T06:30:50;101795.78;;;28.41;58.47
71964;BME280;59834;52.124;5.422;2023-07-09T06:33:18;101795.03;;;28.75;56.43
71964;BME280;59834;52.124;5.422;2023-07-09T06:35:52;101793.94;;;28.91;57.70
71964;BME280;59834;52.124;5.422;2023-07-09T06:38:19;101801.38;;;28.89;55.89
71964;BME280;59834;52.124;5.422;2023-07-09T06:40:46;101795.47;;;28.79;56.39
71964;BME280;59834;52.124;5.422;2023-07-09T06:43:13;101798.78;;;28.74;56.79
71964;BME280;59834;52.124;5.422;2023-07-09T06:45:51;101793.47;;;29.09;56.31
71964;BME280;59834;52.124;5.422;2023-07-09T06:48:18;101801.69;;;29.29;55.28
71964;BME280;59834;52.124;5.422;2023-07-09T06:50:47;101803.38;;;29.36;55.79
71964;BME280;59834;52.124;5.422;2023-07-09T06:53:14;101799.28;;;29.47;56.05
71964;BME280;59834;52.124;5.422;2023-07-09T06:55:41;101805.06;;;29.44;55.64
71964;BME280;59834;52.124;5.422;2023-07-09T06:58:08;101804.59;;;29.62;55.20
71964;BME280;59834;52.124;5.422;2023-07-09T07:00:36;101801.38;;;29.45;55.48
71964;BME280;59834;52.124;5.422;2023-07-09T07:03:04;101800.63;;;29.58;55.83
71964;BME280;59834;52.124;5.422;2023-07-09T07:05:31;101800.91;;;29.70;55.60
71964;BME280;59834;52.124;5.422;2023-07-09T07:07:58;101800.63;;;30.13;55.23
71964;BME280;59834;52.124;5.422;2023-07-09T07:10:25;101798.75;;;30.13;54.47
71964;BME280;59834;52.124;5.422;2023-07-09T07:12:53;101798.31;;;30.03;55.05
71964;BME280;59834;52.124;5.422;2023-07-09T07:15:20;101800.63;;;30.13;55.26
71964;BME280;59834;52.124;5.422;2023-07-09T07:17:47;101804.44;;;30.25;54.61
71964;BME280;59834;52.124;5.422;2023-07-09T07:20:15;101795.94;;;29.80;55.49
71964;BME280;59834;52.124;5.422;2023-07-09T07:22:42;101802.38;;;29.44;56.90
71964;BME280;59834;52.124;5.422;2023-07-09T07:25:08;101795.03;;;29.25;57.53
71964;BME280;59834;52.124;5.422;2023-07-09T07:27:36;101792.88;;;29.13;57.93
71964;BME280;59834;52.124;5.422;2023-07-09T07:30:03;101782.47;;;29.10;57.57
71964;BME280;59834;52.124;5.422;2023-07-09T07:32:30;101783.47;;;29.03;58.45
71964;BME280;59834;52.124;5.422;2023-07-09T07:34:57;101791.38;;;29.04;59.35
71964;BME280;59834;52.124;5.422;2023-07-09T07:37:23;101798.47;;;29.12;58.35
71964;BME280;59834;52.124;5.422;2023-07-09T07:39:50;101794.34;;;29.16;57.99
71964;BME280;59834;52.124;5.422;2023-07-09T07:42:16;101800.41;;;29.25;58.04
71964;BME280;59834;52.124;5.422;2023-07-09T07:44:43;101806.44;;;29.27;57.88
71964;BME280;59834;52.124;5.422;2023-07-09T07:47:10;101796.28;;;29.29;59.24
71964;BME280;59834;52.124;5.422;2023-07-09T07:49:38;101801.72;;;29.35;57.56
71964;BME280;59834;52.124;5.422;2023-07-09T07:52:05;101794.31;;;29.51;56.18
71964;BME280;59834;52.124;5.422;2023-07-09T07:54:32;101807.22;;;29.55;56.66
71964;BME280;59834;52.124;5.422;2023-07-09T07:56:59;101800.19;;;29.54;55.54
71964;BME280;59834;52.124;5.422;2023-07-09T07:59:25;101801.25;;;29.60;56.67
71964;BME280;59834;52.124;5.422;2023-07-09T08:01:52;101798.66;;;29.45;56.44
71964;BME280;59834;52.124;5.422;2023-07-09T08:04:19;101791.81;;;29.43;57.12
71964;BME280;59834;52.124;5.422;2023-07-09T08:06:46;101798.47;;;29.47;57.25
71964;BME280;59834;52.124;5.422;2023-07-09T08:09:12;101796.22;;;29.57;57.53
71964;BME280;59834;52.124;5.422;2023-07-09T08:11:40;101789.47;;;29.68;54.37
71964;BME280;59834;52.124;5.422;2023-07-09T08:14:06;101797.41;;;29.76;54.65
71964;BME280;59834;52.124;5.422;2023-07-09T08:16:33;101793.25;;;29.80;55.70
71964;BME280;59834;52.124;5.422;2023-07-09T08:19:00;101799.28;;;29.82;55.97
71964;BME280;59834;52.124;5.422;2023-07-09T08:21:27;101794.03;;;29.67;56.08
71964;BME280;59834;52.124;5.422;2023-07-09T08:23:53;101799.00;;;29.64;55.23
71964;BME280;59834;52.124;5.422;2023-07-09T08:26:20;101785.19;;;29.87;55.16
71964;BME280;59834;52.124;5.422;2023-07-09T08:28:46;101789.53;;;29.88;54.96
71964;BME280;59834;52.124;5.422;2023-07-09T08:31:14;101793.91;;;29.82;54.73
71964;BME280;59834;52.124;5.422;2023-07-09T08:33:41;101799.50;;;29.87;53.71
71964;BME280;59834;52.124;5.422;2023-07-09T08:36:07;101795.75;;;29.75;53.68
71964;BME280;59834;52.124;5.422;2023-07-09T08:38:34;101788.72;;;29.87;54.24
71964;BME280;59834;52.124;5.422;2023-07-09T08:41:08;101789.81;;;29.99;53.09
71964;BME280;59834;52.124;5.422;2023-07-09T08:46:45;101785.06;;;30.15;52.47
71964;BME280;59834;52.124;5.422;2023-07-09T08:49:20;101785.31;;;30.26;51.83
71964;BME280;59834;52.124;5.422;2023-07-09T08:51:48;101784.09;;;30.29;51.88
71964;BME280;59834;52.124;5.422;2023-07-09T08:54:28;101785.97;;;30.35;51.57
71964;BME280;59834;52.124;5.422;2023-07-09T08:57:00;101779.13;;;30.39;50.67
71964;BME280;59834;52.124;5.422;2023-07-09T08:59:34;101779.94;;;30.40;51.35
71964;BME280;59834;52.124;5.422;2023-07-09T09:02:03;101783.28;;;30.35;51.44
71964;BME280;59834;52.124;5.422;2023-07-09T09:04:34;101776.59;;;30.38;51.57
71964;BME280;59834;52.124;5.422;2023-07-09T09:07:16;101778.72;;;30.42;51.06
71964;BME280;59834;52.124;5.422;2023-07-09T09:09:58;101782.03;;;30.58;51.47
71964;BME280;59834;52.124;5.422;2023-07-09T09:12:29;101774.75;;;30.71;49.94
71964;BME280;59834;52.124;5.422;2023-07-09T09:15:15;101779.75;;;30.68;49.45
71964;BME280;59834;52.124;5.422;2023-07-09T09:17:43;101775.38;;;30.53;49.72
71964;BME280;59834;52.124;5.422;2023-07-09T09:20:16;101778.50;;;30.64;49.76
71964;BME280;59834;52.124;5.422;2023-07-09T09:25:37;101780.59;;;30.88;49.05
71964;BME280;59834;52.124;5.422;2023-07-09T09:28:07;101777.06;;;30.88;48.79
71964;BME280;59834;52.124;5.422;2023-07-09T09:30:34;101773.34;;;30.89;48.48
71964;BME280;59834;52.124;5.422;2023-07-09T09:33:06;101777.69;;;30.90;48.64
71964;BME280;59834;52.124;5.422;2023-07-09T09:35:43;101771.06;;;30.92;47.83
71964;BME280;59834;52.124;5.422;2023-07-09T09:38:20;101770.81;;;31.00;47.37
71964;BME280;59834;52.124;5.422;2023-07-09T09:40:47;101760.63;;;31.03;48.04
71964;BME280;59834;52.124;5.422;2023-07-09T09:43:18;101761.91;;;30.93;47.81
71964;BME280;59834;52.124;5.422;2023-07-09T09:45:48;101767.69;;;31.04;47.61
71964;BME280;59834;52.124;5.422;2023-07-09T09:48:18;101760.41;;;31.11;47.33
71964;BME280;59834;52.124;5.422;2023-07-09T09:50:46;101757.09;;;31.09;47.58
71964;BME280;59834;52.124;5.422;2023-07-09T09:53:20;101761.63;;;31.21;47.76
71964;BME280;59834;52.124;5.422;2023-07-09T09:55:48;101756.81;;;31.30;47.42
71964;BME280;59834;52.124;5.422;2023-07-09T09:58:17;101753.91;;;31.38;46.19
71964;BME280;59834;52.124;5.422;2023-07-09T10:00:52;101754.13;;;31.37;47.69
71964;BME280;59834;52.124;5.422;2023-07-09T10:03:19;101749.13;;;31.40;46.60
71964;BME280;59834;52.124;5.422;2023-07-09T10:05:55;101751.16;;;31.52;46.45
71964;BME280;59834;52.124;5.422;2023-07-09T10:11:12;101745.09;;;31.63;47.39
71964;BME280;59834;52.124;5.422;2023-07-09T10:13:44;101743.34;;;31.75;46.27
71964;BME280;59834;52.124;5.422;2023-07-09T10:16:25;101737.03;;;31.95;45.65
71964;BME280;59834;52.124;5.422;2023-07-09T10:19:10;101741.56;;;32.01;44.43
71964;BME280;59834;52.124;5.422;2023-07-09T10:22:05;101734.84;;;32.10;44.55
71964;BME280;59834;52.124;5.422;2023-07-09T10:24:44;101726.94;;;32.08;44.83
71964;BME280;59834;52.124;5.422;2023-07-09T10:27:45;101725.94;;;32.03;45.03
71964;BME280;59834;52.124;5.422;2023-07-09T10:32:58;101732.06;;;32.23;45.46
71964;BME280;59834;52.124;5.422;2023-07-09T10:35:55;101729.84;;;32.38;44.68
71964;BME280;59834;52.124;5.422;2023-07-09T10:38:59;101730.81;;;32.51;43.02
71964;BME280;59834;52.124;5.422;2023-07-09T10:41:28;101727.72;;;32.47;43.31
71964;BME280;59834;52.124;5.422;2023-07-09T10:44:05;101726.53;;;32.36;43.11
71964;BME280;59834;52.124;5.422;2023-07-09T10:46:39;101738.75;;;32.46;45.44
71964;BME280;59834;52.124;5.422;2023-07-09T10:49:12;101743.31;;;32.20;48.96
71964;BME280;59834;52.124;5.422;2023-07-09T10:51:44;101741.72;;;32.06;48.98
71964;BME280;59834;52.124;5.422;2023-07-09T10:54:35;101738.25;;;31.99;48.98
71964;BME280;59834;52.124;5.422;2023-07-09T10:57:17;101734.06;;;32.03;50.20
71964;BME280;59834;52.124;5.422;2023-07-09T10:59:48;101727.16;;;31.62;46.56
71964;BME280;59834;52.124;5.422;2023-07-09T11:02:21;101730.13;;;31.54;49.72
71964;BME280;59834;52.124;5.422;2023-07-09T11:04:53;101735.41;;;31.80;50.50
71964;BME280;59834;52.124;5.422;2023-07-09T11:07:51;101736.19;;;31.94;49.67
71964;BME280;59834;52.124;5.422;2023-07-09T11:10:25;101744.00;;;31.70;50.58
71964;BME280;59834;52.124;5.422;2023-07-09T11:15:38;101748.31;;;31.20;53.92
71964;BME280;59834;52.124;5.422;2023-07-09T11:18:07;101743.53;;;31.15;52.46
71964;BME280;59834;52.124;5.422;2023-07-09T11:20:43;101731.31;;;30.99;52.96
71964;BME280;59834;52.124;5.422;2023-07-09T11:23:21;101726.09;;;31.05;53.28
71964;BME280;59834;52.124;5.422;2023-07-09T11:26:03;101725.50;;;31.03;52.98
71964;BME280;59834;52.124;5.422;2023-07-09T11:28:39;101712.16;;;31.08;51.84
71964;BME280;59834;52.124;5.422;2023-07-09T11:31:07;101714.84;;;31.14;52.39
71964;BME280;59834;52.124;5.422;2023-07-09T11:33:45;101711.91;;;31.29;51.50
71964;BME280;59834;52.124;5.422;2023-07-09T11:36:23;101706.06;;;31.39;51.59
71964;BME280;59834;52.124;5.422;2023-07-09T11:38:50;101723.94;;;31.46;51.21
71964;BME280;59834;52.124;5.422;2023-07-09T11:41:34;101722.72;;;31.29;50.66
71964;BME280;59834;52.124;5.422;2023-07-09T11:49:57;101731.78;;;31.55;51.74
71964;BME280;59834;52.124;5.422;2023-07-09T11:52:33;101732.78;;;31.67;51.77
71964;BME280;59834;52.124;5.422;2023-07-09T11:58:18;101728.50;;;31.84;50.18
71964;BME280;59834;52.124;5.422;2023-07-09T12:00:54;101732.22;;;31.97;49.53
71964;BME280;59834;52.124;5.422;2023-07-09T12:03:30;101744.97;;;32.21;49.09
71964;BME280;59834;52.124;5.422;2023-07-09T12:06:01;101747.97;;;32.38;48.38
71964;BME280;59834;52.124;5.422;2023-07-09T12:08:34;101746.84;;;32.21;48.86
71964;BME280;59834;52.124;5.422;2023-07-09T12:11:02;101759.94;;;31.92;49.46
71964;BME280;59834;52.124;5.422;2023-07-09T12:13:36;101766.13;;;31.54;49.52
71964;BME280;59834;52.124;5.422;2023-07-09T12:16:03;101765.72;;;31.51;49.55
71964;BME280;59834;52.124;5.422;2023-07-09T12:18:30;101758.00;;;31.54;49.99
71964;BME280;59834;52.124;5.422;2023-07-09T12:20:58;101762.19;;;31.57;50.07
71964;BME280;59834;52.124;5.422;2023-07-09T12:23:29;101773.84;;;31.51;48.59
71964;BME280;59834;52.124;5.422;2023-07-09T12:26:00;101776.31;;;31.52;49.08
71964;BME280;59834;52.124;5.422;2023-07-09T12:28:28;101766.19;;;31.41;49.22
71964;BME280;59834;52.124;5.422;2023-07-09T12:30:56;101767.66;;;31.23;47.96
71964;BME280;59834;52.124;5.422;2023-07-09T12:33:25;101769.31;;;31.24;49.11
71964;BME280;59834;52.124;5.422;2023-07-09T12:35:56;101760.63;;;31.09;48.21
71964;BME280;59834;52.124;5.422;2023-07-09T12:38:27;101750.66;;;31.03;48.10
71964;BME280;59834;52.124;5.422;2023-07-09T12:40:55;101739.81;;;31.10;49.02
71964;BME280;59834;52.124;5.422;2023-07-09T12:43:27;101752.09;;;31.19;49.11
71964;BME280;59834;52.124;5.422;2023-07-09T12:45:56;101761.03;;;31.13;48.58
71964;BME280;59834;52.124;5.422;2023-07-09T12:48:26;101759.38;;;30.98;47.89
71964;BME280;59834;52.124;5.422;2023-07-09T12:50:58;101759.84;;;30.82;47.66
71964;BME280;59834;52.124;5.422;2023-07-09T12:53:27;101766.25;;;30.94;48.10
71964;BME280;59834;52.124;5.422;2023-07-09T12:55:56;101762.44;;;31.22;47.81
71964;BME280;59834;52.124;5.422;2023-07-09T12:58:29;101756.44;;;31.20;48.45
71964;BME280;59834;52.124;5.422;2023-07-09T13:00:57;101751.84;;;31.34;48.08
71964;BME280;59834;52.124;5.422;2023-07-09T13:03:29;101747.84;;;31.50;47.24
71964;BME280;59834;52.124;5.422;2023-07-09T13:05:58;101751.34;;;31.57;46.81
71964;BME280;59834;52.124;5.422;2023-07-09T13:08:27;101746.81;;;31.44;47.04
71964;BME280;59834;52.124;5.422;2023-07-09T13:10:55;101758.09;;;31.34;47.55
71964;BME280;59834;52.124;5.422;2023-07-09T13:13:24;101757.66;;;31.37;46.95
71964;BME280;59834;52.124;5.422;2023-07-09T13:15:54;101750.56;;;31.50;46.05
71964;BME280;59834;52.124;5.422;2023-07-09T13:18:24;101757.59;;;31.57;47.36
71964;BME280;59834;52.124;5.422;2023-07-09T13:20:54;101757.59;;;31.57;46.07
71964;BME280;59834;52.124;5.422;2023-07-09T13:23:27;101769.69;;;31.48;45.68
71964;BME280;59834;52.124;5.422;2023-07-09T13:25:55;101780.53;;;31.35;45.48
71964;BME280;59834;52.124;5.422;2023-07-09T13:28:27;101779.31;;;31.17;45.99
71964;BME280;59834;52.124;5.422;2023-07-09T13:30:58;101793.91;;;31.10;46.18